Zeran (malta) — 9HHJ5 — position and weather

sailwx.info

Track history (hours):
 
Tides and Currents Weather Stations Pressure Air Temp Water Temp Dewpoint Dewpoint Depression Visibility Wind Speed Wind Dir Waves Ship Positions

Zeran (malta)

Last reported at 2017-Feb-26 10:24 UTC. Time now 2017-Feb-26 23:59 UTC.
Position N 43°01' E 009°59'.

Length 148 m; beam 24 m.

Type: Ship (hazmat cat A). MMSI: 249846000.

Date/timePositionNaut miles runAvg speedWind from/ knotsBaromVisibWave heightAir tempDewpointWater temp
2017-Feb-26 10:24N 43°01' E 009°59'1012.0
2017-Feb-26 09:33N 43°11' E 009°56'1212.4
2017-Feb-26 08:33N 43°21' E 009°47'1212.2
2017-Feb-26 07:33N 43°32' E 009°38'1212.1
2017-Feb-26 06:33N 43°42' E 009°30'1211.9
2017-Feb-26 05:33N 43°52' E 009°21'1212.2
2017-Feb-26 04:33N 44°02' E 009°12'1312.5
2017-Feb-26 03:33N 44°13' E 009°02'1111.5
2017-Feb-26 02:33N 44°23' E 008°54'2 2.0
2017-Feb-26 01:32N 44°24' E 008°53'0 0.0
2017-Feb-26 00:29N 44°24' E 008°53'0 0.0
2017-Feb-25 23:32N 44°24' E 008°53'0 0.0
2017-Feb-25 22:29N 44°24' E 008°53'0 0.0
2017-Feb-25 21:32N 44°24' E 008°53'0 0.0
2017-Feb-25 20:32N 44°24' E 008°53'0 0.0
2017-Feb-25 19:32N 44°24' E 008°53'0 0.0
2017-Feb-25 18:32N 44°24' E 008°53'0 0.0
2017-Feb-25 17:32N 44°24' E 008°53'0 0.0
2017-Feb-25 16:32N 44°24' E 008°53'0 0.0
2017-Feb-25 15:32N 44°24' E 008°53'0 0.0
2017-Feb-25 14:20N 44°24' E 008°53'0 0.0
2017-Feb-25 13:32N 44°24' E 008°53'0 0.0
2017-Feb-25 12:32N 44°24' E 008°53'0 0.0
2017-Feb-25 11:32N 44°24' E 008°53'0 0.0
2017-Feb-25 10:32N 44°24' E 008°53'0 0.0
2017-Feb-25 09:29N 44°24' E 008°53'0 0.0
2017-Feb-25 08:32N 44°24' E 008°53'0 0.0
2017-Feb-25 07:32N 44°24' E 008°53'0 0.0
2017-Feb-25 06:32N 44°24' E 008°53'0 0.0
2017-Feb-25 05:32N 44°24' E 008°53'5 4.7
2017-Feb-25 04:33N 44°22' E 008°58'9 9.0
2017-Feb-25 03:33N 44°14' E 009°04'1110.8
2017-Feb-25 02:33N 44°05' E 009°12'1110.6
2017-Feb-25 01:33N 43°56' E 009°19'1010.5
2017-Feb-25 00:33N 43°47' E 009°27'1212.1
2017-Feb-24 23:33N 43°36' E 009°36'1212.0
2017-Feb-24 22:33N 43°26' E 009°44'1211.9
2017-Feb-24 21:33N 43°16' E 009°52'1211.9
2017-Feb-24 20:33N 43°05' E 010°00'3811.5
2017-Feb-24 17:17N 42°31' E 010°21'  
2017-Feb-18 21:10N 42°57' E 009°60'812.5
2017-Feb-18 20:33N 43°05' E 009°60'1312.5
2017-Feb-18 19:33N 43°16' E 009°52'1212.4
2017-Feb-18 18:33N 43°26' E 009°43'1312.6
2017-Feb-18 17:33N 43°37' E 009°33'1212.3
2017-Feb-18 16:33N 43°47' E 009°25'1212.2
2017-Feb-18 15:33N 43°58' E 009°16'1010.3
2017-Feb-18 14:33N 44°06' E 009°08'8 8.3
2017-Feb-18 13:33N 44°13' E 009°02'8 8.2
2017-Feb-18 12:33N 44°20' E 008°55'5 4.9
2017-Feb-18 11:33N 44°24' E 008°53'0 0.0
2017-Feb-18 10:33N 44°24' E 008°53'0 0.0
2017-Feb-18 09:33N 44°24' E 008°53'0 0.0
2017-Feb-18 08:33N 44°24' E 008°53'0 0.0
2017-Feb-18 07:33N 44°24' E 008°53'0 0.0
2017-Feb-18 06:33N 44°24' E 008°53'0 0.0
2017-Feb-18 05:33N 44°24' E 008°53'0 0.0
2017-Feb-18 04:33N 44°24' E 008°53'0 0.0
2017-Feb-18 03:33N 44°24' E 008°53'0 0.0
2017-Feb-18 02:33N 44°24' E 008°53'0 0.0
2017-Feb-18 01:33N 44°24' E 008°53'0 0.0
2017-Feb-18 00:30N 44°24' E 008°53'0 0.0
2017-Feb-17 23:30N 44°24' E 008°53'0 0.0
2017-Feb-17 22:33N 44°24' E 008°53'0 0.0
2017-Feb-17 21:30N 44°24' E 008°53'0 0.0
2017-Feb-17 20:33N 44°24' E 008°53'0 0.0
2017-Feb-17 19:33N 44°24' E 008°53'0 0.0
2017-Feb-17 18:33N 44°24' E 008°53'0 0.0
2017-Feb-17 17:33N 44°24' E 008°53'0 0.0
2017-Feb-17 16:33N 44°24' E 008°53'0 0.0
2017-Feb-17 15:33N 44°24' E 008°53'0 0.0
2017-Feb-17 14:33N 44°24' E 008°53'0 0.0
2017-Feb-17 13:30N 44°24' E 008°53'0 0.0
2017-Feb-17 12:33N 44°24' E 008°53'0 0.0
2017-Feb-17 11:33N 44°24' E 008°53'0 0.0
2017-Feb-17 10:33N 44°24' E 008°53'0 0.0
2017-Feb-17 09:30N 44°24' E 008°53'2 2.6
2017-Feb-17 08:33N 44°23' E 008°56'9 9.4
2017-Feb-17 07:33N 44°15' E 009°02'1312.5
2017-Feb-17 06:33N 44°03' E 009°08'1212.3
2017-Feb-17 05:33N 43°52' E 009°14'1312.8
2017-Feb-17 04:33N 43°40' E 009°20'1212.3
2017-Feb-17 03:33N 43°28' E 009°26'1212.2
2017-Feb-17 02:33N 43°17' E 009°31'1312.2
2017-Feb-17 01:30N 43°04' E 009°37'  
Track history (hours):
 
Tides and Currents Weather Stations Pressure Air Temp Water Temp Dewpoint Dewpoint Depression Visibility Wind Speed Wind Dir Waves Ship Positions

Zeran (malta)

Last reported at 2017-Feb-26 10:24 UTC. Time now 2017-Feb-26 23:59 UTC.
Position N 43°01' E 009°59'.

Length 148 m; beam 24 m.

Type: Ship (hazmat cat A). MMSI: 249846000.

Date/timePositionNaut miles runAvg speedWind from/ knotsBaromVisibWave heightAir tempDewpointWater temp
2017-Feb-26 10:24N 43°01' E 009°59'1012.0
2017-Feb-26 09:33N 43°11' E 009°56'1212.4
2017-Feb-26 08:33N 43°21' E 009°47'1212.2
2017-Feb-26 07:33N 43°32' E 009°38'1212.1
2017-Feb-26 06:33N 43°42' E 009°30'1211.9
2017-Feb-26 05:33N 43°52' E 009°21'1212.2
2017-Feb-26 04:33N 44°02' E 009°12'1312.5
2017-Feb-26 03:33N 44°13' E 009°02'1111.5
2017-Feb-26 02:33N 44°23' E 008°54'2 2.0
2017-Feb-26 01:32N 44°24' E 008°53'0 0.0
2017-Feb-26 00:29N 44°24' E 008°53'0 0.0
2017-Feb-25 23:32N 44°24' E 008°53'0 0.0
2017-Feb-25 22:29N 44°24' E 008°53'0 0.0
2017-Feb-25 21:32N 44°24' E 008°53'0 0.0
2017-Feb-25 20:32N 44°24' E 008°53'0 0.0
2017-Feb-25 19:32N 44°24' E 008°53'0 0.0
2017-Feb-25 18:32N 44°24' E 008°53'0 0.0
2017-Feb-25 17:32N 44°24' E 008°53'0 0.0
2017-Feb-25 16:32N 44°24' E 008°53'0 0.0
2017-Feb-25 15:32N 44°24' E 008°53'0 0.0
2017-Feb-25 14:20N 44°24' E 008°53'0 0.0
2017-Feb-25 13:32N 44°24' E 008°53'0 0.0
2017-Feb-25 12:32N 44°24' E 008°53'0 0.0
2017-Feb-25 11:32N 44°24' E 008°53'0 0.0
2017-Feb-25 10:32N 44°24' E 008°53'0 0.0
2017-Feb-25 09:29N 44°24' E 008°53'0 0.0
2017-Feb-25 08:32N 44°24' E 008°53'0 0.0
2017-Feb-25 07:32N 44°24' E 008°53'0 0.0
2017-Feb-25 06:32N 44°24' E 008°53'0 0.0
2017-Feb-25 05:32N 44°24' E 008°53'5 4.7
2017-Feb-25 04:33N 44°22' E 008°58'9 9.0
2017-Feb-25 03:33N 44°14' E 009°04'1110.8
2017-Feb-25 02:33N 44°05' E 009°12'1110.6
2017-Feb-25 01:33N 43°56' E 009°19'1010.5
2017-Feb-25 00:33N 43°47' E 009°27'1212.1
2017-Feb-24 23:33N 43°36' E 009°36'1212.0
2017-Feb-24 22:33N 43°26' E 009°44'1211.9
2017-Feb-24 21:33N 43°16' E 009°52'1211.9
2017-Feb-24 20:33N 43°05' E 010°00'3811.5
2017-Feb-24 17:17N 42°31' E 010°21'  
2017-Feb-18 21:10N 42°57' E 009°60'812.5
2017-Feb-18 20:33N 43°05' E 009°60'1312.5
2017-Feb-18 19:33N 43°16' E 009°52'1212.4
2017-Feb-18 18:33N 43°26' E 009°43'1312.6
2017-Feb-18 17:33N 43°37' E 009°33'1212.3
2017-Feb-18 16:33N 43°47' E 009°25'1212.2
2017-Feb-18 15:33N 43°58' E 009°16'1010.3
2017-Feb-18 14:33N 44°06' E 009°08'8 8.3
2017-Feb-18 13:33N 44°13' E 009°02'8 8.2
2017-Feb-18 12:33N 44°20' E 008°55'5 4.9
2017-Feb-18 11:33N 44°24' E 008°53'0 0.0
2017-Feb-18 10:33N 44°24' E 008°53'0 0.0
2017-Feb-18 09:33N 44°24' E 008°53'0 0.0
2017-Feb-18 08:33N 44°24' E 008°53'0 0.0
2017-Feb-18 07:33N 44°24' E 008°53'0 0.0
2017-Feb-18 06:33N 44°24' E 008°53'0 0.0
2017-Feb-18 05:33N 44°24' E 008°53'0 0.0
2017-Feb-18 04:33N 44°24' E 008°53'0 0.0
2017-Feb-18 03:33N 44°24' E 008°53'0 0.0
2017-Feb-18 02:33N 44°24' E 008°53'0 0.0
2017-Feb-18 01:33N 44°24' E 008°53'0 0.0
2017-Feb-18 00:30N 44°24' E 008°53'0 0.0
2017-Feb-17 23:30N 44°24' E 008°53'0 0.0
2017-Feb-17 22:33N 44°24' E 008°53'0 0.0
2017-Feb-17 21:30N 44°24' E 008°53'0 0.0
2017-Feb-17 20:33N 44°24' E 008°53'0 0.0
2017-Feb-17 19:33N 44°24' E 008°53'0 0.0
2017-Feb-17 18:33N 44°24' E 008°53'0 0.0
2017-Feb-17 17:33N 44°24' E 008°53'0 0.0
2017-Feb-17 16:33N 44°24' E 008°53'0 0.0
2017-Feb-17 15:33N 44°24' E 008°53'0 0.0
2017-Feb-17 14:33N 44°24' E 008°53'0 0.0
2017-Feb-17 13:30N 44°24' E 008°53'0 0.0
2017-Feb-17 12:33N 44°24' E 008°53'0 0.0
2017-Feb-17 11:33N 44°24' E 008°53'0 0.0
2017-Feb-17 10:33N 44°24' E 008°53'0 0.0
2017-Feb-17 09:30N 44°24' E 008°53'2 2.6
2017-Feb-17 08:33N 44°23' E 008°56'9 9.4
2017-Feb-17 07:33N 44°15' E 009°02'1312.5
2017-Feb-17 06:33N 44°03' E 009°08'1212.3
2017-Feb-17 05:33N 43°52' E 009°14'1312.8
2017-Feb-17 04:33N 43°40' E 009°20'1212.3
2017-Feb-17 03:33N 43°28' E 009°26'1212.2
2017-Feb-17 02:33N 43°17' E 009°31'1312.2
2017-Feb-17 01:30N 43°04' E 009°37'  

Dump ship's entire track history